createdAt,value
2018-06-28T00:03:04.105Z,15.73
2018-06-28T00:09:10.389Z,15.67
2018-06-28T00:15:16.127Z,15.46
2018-06-28T00:21:22.404Z,15.46
2018-06-28T00:27:28.330Z,15.42
2018-06-28T00:33:34.203Z,15.31
2018-06-28T00:39:40.124Z,15.16
2018-06-28T00:45:45.775Z,14.85
2018-06-28T00:51:52.604Z,15.06
2018-06-28T00:57:58.552Z,14.68
2018-06-28T01:04:04.387Z,14.54
2018-06-28T01:10:10.136Z,14.45
2018-06-28T01:16:16.103Z,14.33
2018-06-28T01:22:21.878Z,14.15
2018-06-28T01:28:27.726Z,14.20
2018-06-28T01:34:33.829Z,13.89
2018-06-28T01:40:39.542Z,13.91
2018-06-28T01:46:45.613Z,14.03
2018-06-28T01:52:51.901Z,13.79
2018-06-28T01:58:57.566Z,13.68
2018-06-28T02:05:03.985Z,13.62
2018-06-28T02:11:09.933Z,13.60
2018-06-28T02:17:15.972Z,13.39
2018-06-28T02:23:22.053Z,13.50
2018-06-28T02:29:28.282Z,13.28
2018-06-28T02:35:34.022Z,13.25
2018-06-28T02:41:39.695Z,13.05
2018-06-28T02:47:45.611Z,12.86
2018-06-28T02:53:52.359Z,12.74
2018-06-28T02:59:58.085Z,12.83
2018-06-28T03:06:04.114Z,12.83
2018-06-28T03:12:09.877Z,12.83
2018-06-28T03:18:15.757Z,12.86
2018-06-28T03:24:22.282Z,12.97
2018-06-28T03:30:28.339Z,13.06
2018-06-28T03:36:34.079Z,13.13
2018-06-28T03:42:40.021Z,13.20
2018-06-28T03:48:45.970Z,13.36
2018-06-28T03:54:52.562Z,13.51
2018-06-28T04:00:58.324Z,13.56
2018-06-28T04:07:04.409Z,13.67
2018-06-28T04:13:10.359Z,13.92
2018-06-28T04:19:16.068Z,14.18
2018-06-28T04:25:23.971Z,14.15
2018-06-28T04:31:29.883Z,14.17
2018-06-28T04:37:35.509Z,14.33
2018-06-28T04:43:41.428Z,14.55
2018-06-28T04:49:47.287Z,14.74
2018-06-28T04:55:53.954Z,15.10
2018-06-28T05:01:59.723Z,15.37
2018-06-28T05:08:05.435Z,15.38
2018-06-28T05:14:11.292Z,15.63
2018-06-28T05:20:17.121Z,15.98
2018-06-28T05:26:23.284Z,16.23
2018-06-28T05:32:29.110Z,16.40
2018-06-28T05:38:34.784Z,16.80
2018-06-28T05:44:40.222Z,17.13
2018-06-28T05:50:45.789Z,17.35
2018-06-28T05:56:52.071Z,17.74
2018-06-28T06:02:57.923Z,18.08
2018-06-28T06:09:04.194Z,18.31
2018-06-28T06:15:09.908Z,18.71
2018-06-28T06:21:15.632Z,19.24
2018-06-28T06:27:22.755Z,19.56
2018-06-28T06:33:29.181Z,19.61
2018-06-28T06:39:34.854Z,19.85
2018-06-28T06:45:40.837Z,20.10
2018-06-28T06:51:47.170Z,20.39
2018-06-28T06:57:53.392Z,20.85
2018-06-28T07:03:59.216Z,20.94
2018-06-28T07:10:05.037Z,21.49
2018-06-28T07:16:10.625Z,22.03
2018-06-28T07:22:16.309Z,22.16
2018-06-28T07:28:23.167Z,22.51
2018-06-28T07:34:28.836Z,22.94
2018-06-28T07:40:34.913Z,23.38
2018-06-28T07:46:40.548Z,23.91
2018-06-28T07:52:46.353Z,24.37
2018-06-28T07:58:52.425Z,24.59
2018-06-28T08:04:58.231Z,24.40
2018-06-28T08:11:03.898Z,24.44
2018-06-28T08:17:10.063Z,24.71
2018-06-28T08:23:15.831Z,24.69
2018-06-28T08:29:21.592Z,24.72
2018-06-28T08:35:28.032Z,25.19
2018-06-28T08:41:33.763Z,25.46
2018-06-28T08:47:39.515Z,25.63
2018-06-28T08:53:45.512Z,26.11
2018-06-28T08:59:51.304Z,26.56
2018-06-28T09:05:57.087Z,26.67
2018-06-28T09:12:02.861Z,26.44
2018-06-28T09:18:09.063Z,26.80
2018-06-28T09:24:14.724Z,27.13
2018-06-28T09:30:21.460Z,27.41
2018-06-28T09:36:27.662Z,27.34
2018-06-28T09:42:33.317Z,27.58
2018-06-28T09:48:39.448Z,28.03
2018-06-28T09:54:45.144Z,28.32
2018-06-28T10:00:51.413Z,28.75
2018-06-28T10:06:57.406Z,28.50
2018-06-28T10:13:03.263Z,28.63
2018-06-28T10:19:09.319Z,29.31
2018-06-28T10:25:15.314Z,29.68
2018-06-28T10:31:22.241Z,29.32
2018-06-28T10:37:28.547Z,29.02
2018-06-28T10:43:34.796Z,29.41
2018-06-28T10:49:40.482Z,29.49
2018-06-28T10:55:46.390Z,29.76
2018-06-28T11:01:53.598Z,29.66
2018-06-28T11:07:59.498Z,29.75
2018-06-28T11:14:05.476Z,29.75
2018-06-28T11:20:11.253Z,30.66
2018-06-28T11:26:17.084Z,30.96
2018-06-28T11:32:23.680Z,30.76
2018-06-28T11:38:29.369Z,31.00
2018-06-28T11:44:35.063Z,30.88
2018-06-28T11:50:40.854Z,31.80
2018-06-28T11:56:46.733Z,31.81
2018-06-28T12:02:52.523Z,31.20
2018-06-28T12:08:58.287Z,32.17
2018-06-28T12:15:04.222Z,31.24
2018-06-28T12:21:10.055Z,31.18
2018-06-28T12:27:15.820Z,32.42
2018-06-28T12:33:22.602Z,32.33
2018-06-28T12:39:28.509Z,33.43
2018-06-28T12:45:34.265Z,32.79
2018-06-28T12:53:03.985Z,31.79
2018-06-28T12:59:12.163Z,32.28
2018-06-28T13:05:18.293Z,33.13
2018-06-28T13:11:26.011Z,33.63
2018-06-28T13:17:31.822Z,33.04
2018-06-28T13:23:37.906Z,33.30
2018-06-28T13:29:43.599Z,34.06
2018-06-28T13:35:49.803Z,34.04
2018-06-28T13:41:56.120Z,33.43
2018-06-28T13:48:01.789Z,32.93
2018-06-28T13:54:08.091Z,33.90
2018-06-28T14:00:13.777Z,34.60
2018-06-28T14:06:19.958Z,34.37
2018-06-28T14:12:26.333Z,33.92
2018-06-28T14:18:31.966Z,34.22
2018-06-28T14:24:37.752Z,35.17
2018-06-28T14:30:43.481Z,35.19
2018-06-28T14:36:49.173Z,33.87
2018-06-28T14:42:54.857Z,34.26
2018-06-28T14:49:00.582Z,34.42
2018-06-28T14:55:07.012Z,33.99
2018-06-28T15:01:12.954Z,32.39
2018-06-28T15:07:19.093Z,30.49
2018-06-28T15:13:24.721Z,31.52
2018-06-28T15:19:30.372Z,33.17
2018-06-28T15:25:36.260Z,33.87
2018-06-28T15:31:41.928Z,31.50
2018-06-28T15:37:48.086Z,32.28
2018-06-28T15:43:53.997Z,31.25
2018-06-28T15:49:59.738Z,30.02
2018-06-28T15:56:06.439Z,29.58
2018-06-28T16:02:12.127Z,29.06
2018-06-28T16:08:17.834Z,30.25
2018-06-28T16:14:24.109Z,30.80
2018-06-28T16:20:29.853Z,31.56
2018-06-28T16:26:36.258Z,31.78
2018-06-28T16:32:42.181Z,32.14
2018-06-28T16:38:48.200Z,32.98
2018-06-28T16:44:55.307Z,31.50
2018-06-28T16:51:01.076Z,29.69
2018-06-28T16:57:06.984Z,30.11
2018-06-28T17:03:15.939Z,32.40
2018-06-28T17:09:22.303Z,33.43
2018-06-28T17:15:28.027Z,36.02
2018-06-28T17:21:33.849Z,36.89
2018-06-28T17:27:39.717Z,37.62
2018-06-28T17:33:45.773Z,37.52
2018-06-28T17:39:51.989Z,34.59
2018-06-28T17:45:57.950Z,31.42
2018-06-28T17:52:03.897Z,30.24
2018-06-28T17:58:09.560Z,28.76
2018-06-28T18:04:15.254Z,28.31
2018-06-28T18:10:21.091Z,29.75
2018-06-28T18:16:26.790Z,28.58
2018-06-28T18:22:32.450Z,27.71
2018-06-28T18:28:38.337Z,28.91
2018-06-28T18:34:43.971Z,30.18
2018-06-28T18:40:49.682Z,30.41
2018-06-28T18:46:55.685Z,30.92
2018-06-28T18:53:01.493Z,29.78
2018-06-28T18:59:07.176Z,28.35
2018-06-28T19:05:12.918Z,27.45
2018-06-28T19:11:18.736Z,26.88
2018-06-28T19:17:25.365Z,26.45
2018-06-28T19:23:36.081Z,25.92
2018-06-28T19:29:47.418Z,25.43
2018-06-28T19:35:54.265Z,25.18
2018-06-28T19:42:04.968Z,24.79
2018-06-28T19:48:10.646Z,24.62
2018-06-28T19:54:16.412Z,24.10
2018-06-28T20:00:27.821Z,23.89
2018-06-28T20:06:33.555Z,23.90
2018-06-28T20:12:44.757Z,23.59
2018-06-28T20:18:56.217Z,23.29
2018-06-28T20:25:02.105Z,23.22
2018-06-28T20:31:13.176Z,22.71
2018-06-28T20:37:19.445Z,22.67
2018-06-28T20:43:26.475Z,22.59
2018-06-28T20:49:32.348Z,22.62
2018-06-28T20:55:38.260Z,22.44
2018-06-28T21:01:43.954Z,22.37
2018-06-28T21:07:49.811Z,22.53
2018-06-28T21:13:55.826Z,22.50
2018-06-28T21:20:01.623Z,22.51
2018-06-28T21:26:07.413Z,22.22
2018-06-28T21:32:13.208Z,22.23
2018-06-28T21:38:18.913Z,22.01
2018-06-28T21:44:26.135Z,21.97
2018-06-28T21:50:31.952Z,21.77
2018-06-28T21:56:37.668Z,21.55
2018-06-28T22:02:43.475Z,21.54
2018-06-28T22:08:49.530Z,21.35
2018-06-28T22:14:55.515Z,20.85
2018-06-28T22:21:01.168Z,20.72
2018-06-28T22:27:06.575Z,20.37
2018-06-28T22:33:12.327Z,20.25
2018-06-28T22:39:18.181Z,20.16
2018-06-28T22:45:24.846Z,20.00
2018-06-28T22:51:30.540Z,19.67
2018-06-28T22:57:36.257Z,19.59
2018-06-28T23:03:42.038Z,19.41
2018-06-28T23:09:47.833Z,19.34
2018-06-28T23:15:54.051Z,19.18
2018-06-28T23:21:59.725Z,18.70
2018-06-28T23:28:05.491Z,18.54
2018-06-28T23:34:11.390Z,18.23
2018-06-28T23:40:17.150Z,18.13
2018-06-28T23:46:23.691Z,17.74
2018-06-28T23:52:29.434Z,17.69
2018-06-28T23:58:35.476Z,17.57
